sensor_id;sensor_type;location;lat;lon;timestamp;pressure;altitude;pressure_sealevel;temperature;humidity
77263;BME280;66373;52.334;4.806;2024-03-02T00:00:30;99686.16;;;16.39;56.32
77263;BME280;66373;52.334;4.806;2024-03-02T00:02:56;99692.25;;;16.38;56.38
77263;BME280;66373;52.334;4.806;2024-03-02T00:05:23;99674.06;;;16.38;56.31
77263;BME280;66373;52.334;4.806;2024-03-02T00:07:53;99677.53;;;16.39;56.34
77263;BME280;66373;52.334;4.806;2024-03-02T00:10:25;99681.88;;;16.38;56.50
77263;BME280;66373;52.334;4.806;2024-03-02T00:12:55;99708.72;;;16.37;56.39
77263;BME280;66373;52.334;4.806;2024-03-02T00:15:41;99713.91;;;16.37;56.36
77263;BME280;66373;52.334;4.806;2024-03-02T00:18:14;99714.75;;;16.38;56.72
77263;BME280;66373;52.334;4.806;2024-03-02T00:20:41;99704.38;;;16.38;56.37
77263;BME280;66373;52.334;4.806;2024-03-02T00:23:09;99699.25;;;16.36;56.29
77263;BME280;66373;52.334;4.806;2024-03-02T00:25:43;99696.66;;;16.36;56.36
77263;BME280;66373;52.334;4.806;2024-03-02T00:28:15;99692.38;;;16.35;56.42
77263;BME280;66373;52.334;4.806;2024-03-02T00:30:52;99703.53;;;16.37;56.40
77263;BME280;66373;52.334;4.806;2024-03-02T00:33:22;99713.13;;;16.35;56.33
77263;BME280;66373;52.334;4.806;2024-03-02T00:35:49;99720.91;;;16.35;56.32
77263;BME280;66373;52.334;4.806;2024-03-02T00:38:17;99720.97;;;16.34;56.39
77263;BME280;66373;52.334;4.806;2024-03-02T00:40:46;99715.81;;;16.32;56.41
77263;BME280;66373;52.334;4.806;2024-03-02T00:46:19;99705.41;;;16.34;56.44
77263;BME280;66373;52.334;4.806;2024-03-02T00:48:55;99714.03;;;16.34;56.47
77263;BME280;66373;52.334;4.806;2024-03-02T00:51:24;99721.81;;;16.34;56.41
77263;BME280;66373;52.334;4.806;2024-03-02T00:53:51;99727.91;;;16.33;56.33
77263;BME280;66373;52.334;4.806;2024-03-02T00:56:24;99728.00;;;16.30;56.57
77263;BME280;66373;52.334;4.806;2024-03-02T00:58:52;99727.06;;;16.33;56.36
77263;BME280;66373;52.334;4.806;2024-03-02T01:01:19;99727.91;;;16.33;56.30
77263;BME280;66373;52.334;4.806;2024-03-02T01:03:47;99719.50;;;16.25;56.32
77263;BME280;66373;52.334;4.806;2024-03-02T01:06:14;99733.19;;;16.30;56.22
77263;BME280;66373;52.334;4.806;2024-03-02T01:08:42;99743.53;;;16.32;56.41
77263;BME280;66373;52.334;4.806;2024-03-02T01:11:09;99742.72;;;16.29;56.48
77263;BME280;66373;52.334;4.806;2024-03-02T01:13:38;99742.72;;;16.29;56.39
77263;BME280;66373;52.334;4.806;2024-03-02T01:16:05;99743.56;;;16.30;56.28
77263;BME280;66373;52.334;4.806;2024-03-02T01:18:33;99741.00;;;16.28;56.50
77263;BME280;66373;52.334;4.806;2024-03-02T01:21:00;99735.81;;;16.28;56.37
77263;BME280;66373;52.334;4.806;2024-03-02T01:23:27;99738.41;;;16.28;56.35
77263;BME280;66373;52.334;4.806;2024-03-02T01:25:54;99730.63;;;16.28;56.39
77263;BME280;66373;52.334;4.806;2024-03-02T01:28:21;99724.69;;;16.25;56.31
77263;BME280;66373;52.334;4.806;2024-03-02T01:30:50;99721.19;;;16.26;56.41
77263;BME280;66373;52.334;4.806;2024-03-02T01:33:18;99722.91;;;16.27;56.46
77263;BME280;66373;52.334;4.806;2024-03-02T01:35:46;99702.13;;;16.27;56.30
77263;BME280;66373;52.334;4.806;2024-03-02T01:38:14;99703.94;;;16.25;56.31
77263;BME280;66373;52.334;4.806;2024-03-02T01:40:42;99715.97;;;16.27;56.45
77263;BME280;66373;52.334;4.806;2024-03-02T01:43:10;99722.03;;;16.26;56.25
77263;BME280;66373;52.334;4.806;2024-03-02T01:45:37;99731.56;;;16.26;56.34
77263;BME280;66373;52.334;4.806;2024-03-02T01:48:07;99738.50;;;16.25;56.35
77263;BME280;66373;52.334;4.806;2024-03-02T01:50:34;99746.44;;;16.21;56.50
77263;BME280;66373;52.334;4.806;2024-03-02T01:53:02;99751.56;;;16.22;56.37
77263;BME280;66373;52.334;4.806;2024-03-02T01:55:29;99771.41;;;16.25;56.37
77263;BME280;66373;52.334;4.806;2024-03-02T01:57:57;99763.59;;;16.25;56.39
77263;BME280;66373;52.334;4.806;2024-03-02T02:00:24;99756.81;;;16.21;56.68
77263;BME280;66373;52.334;4.806;2024-03-02T02:02:53;99761.00;;;16.25;56.37
77263;BME280;66373;52.334;4.806;2024-03-02T02:05:22;99752.38;;;16.24;56.40
77263;BME280;66373;52.334;4.806;2024-03-02T02:07:49;99754.13;;;16.24;56.33
77263;BME280;66373;52.334;4.806;2024-03-02T02:10:16;99768.84;;;16.23;56.38
77263;BME280;66373;52.334;4.806;2024-03-02T02:12:44;99778.38;;;16.23;56.31
77263;BME280;66373;52.334;4.806;2024-03-02T02:15:27;99763.75;;;16.20;56.26
77263;BME280;66373;52.334;4.806;2024-03-02T02:17:55;99759.41;;;16.21;56.37
77263;BME280;66373;52.334;4.806;2024-03-02T02:20:24;99742.03;;;16.23;56.35
77263;BME280;66373;52.334;4.806;2024-03-02T02:22:57;99750.78;;;16.20;56.27
77263;BME280;66373;52.334;4.806;2024-03-02T02:25:25;99770.63;;;16.21;56.37
77263;BME280;66373;52.334;4.806;2024-03-02T02:27:52;99763.75;;;16.20;56.31
77263;BME280;66373;52.334;4.806;2024-03-02T02:30:20;99764.59;;;16.21;56.26
77263;BME280;66373;52.334;4.806;2024-03-02T02:32:48;99766.34;;;16.20;56.44
77263;BME280;66373;52.334;4.806;2024-03-02T02:35:15;99762.00;;;16.21;56.23
77263;BME280;66373;52.334;4.806;2024-03-02T02:37:43;99762.03;;;16.19;56.30
77263;BME280;66373;52.334;4.806;2024-03-02T02:40:12;99765.50;;;16.20;56.51
77263;BME280;66373;52.334;4.806;2024-03-02T02:42:40;99767.31;;;16.16;56.28
77263;BME280;66373;52.334;4.806;2024-03-02T02:45:07;99777.66;;;16.18;56.42
77263;BME280;66373;52.334;4.806;2024-03-02T02:47:34;99763.78;;;16.19;56.25
77263;BME280;66373;52.334;4.806;2024-03-02T02:50:02;99763.78;;;16.19;56.37
77263;BME280;66373;52.334;4.806;2024-03-02T02:52:33;99766.38;;;16.19;56.33
77263;BME280;66373;52.334;4.806;2024-03-02T02:55:03;99766.38;;;16.19;56.58
77263;BME280;66373;52.334;4.806;2024-03-02T02:57:33;99775.97;;;16.17;56.34
77263;BME280;66373;52.334;4.806;2024-03-02T03:00:05;99772.47;;;16.18;56.36
77263;BME280;66373;52.334;4.806;2024-03-02T03:02:37;99771.56;;;16.19;56.32
77263;BME280;66373;52.334;4.806;2024-03-02T03:05:05;99773.31;;;16.18;56.38
77263;BME280;66373;52.334;4.806;2024-03-02T03:07:33;99779.34;;;16.19;56.26
77263;BME280;66373;52.334;4.806;2024-03-02T03:10:00;99771.63;;;16.17;56.29
77263;BME280;66373;52.334;4.806;2024-03-02T03:12:29;99781.16;;;16.17;56.39
77263;BME280;66373;52.334;4.806;2024-03-02T03:14:58;99780.28;;;16.16;56.25
77263;BME280;66373;52.334;4.806;2024-03-02T03:17:25;99783.75;;;16.17;56.34
77263;BME280;66373;52.334;4.806;2024-03-02T03:19:53;99763.91;;;16.14;56.20
77263;BME280;66373;52.334;4.806;2024-03-02T03:22:20;99778.56;;;16.17;56.31
77263;BME280;66373;52.334;4.806;2024-03-02T03:24:47;99764.78;;;16.15;56.35
77263;BME280;66373;52.334;4.806;2024-03-02T03:27:14;99769.97;;;16.15;56.25
77263;BME280;66373;52.334;4.806;2024-03-02T03:29:41;99780.34;;;16.15;56.26
77263;BME280;66373;52.334;4.806;2024-03-02T03:32:10;99782.09;;;16.14;56.22
77263;BME280;66373;52.334;4.806;2024-03-02T03:34:38;99789.03;;;16.14;56.21
77263;BME280;66373;52.334;4.806;2024-03-02T03:37:05;99783.84;;;16.14;56.25
77263;BME280;66373;52.334;4.806;2024-03-02T03:39:34;99777.84;;;16.12;56.34
77263;BME280;66373;52.334;4.806;2024-03-02T03:42:01;99788.22;;;16.12;56.42
77263;BME280;66373;52.334;4.806;2024-03-02T03:44:28;99790.81;;;16.12;56.44
77263;BME280;66373;52.334;4.806;2024-03-02T03:46:55;99788.16;;;16.13;56.28
77263;BME280;66373;52.334;4.806;2024-03-02T03:49:24;99788.28;;;16.10;56.25
77263;BME280;66373;52.334;4.806;2024-03-02T03:51:51;99791.66;;;16.12;56.26
77263;BME280;66373;52.334;4.806;2024-03-02T03:54:18;99796.00;;;16.12;56.18
77263;BME280;66373;52.334;4.806;2024-03-02T03:56:45;99802.03;;;16.12;56.34
77263;BME280;66373;52.334;4.806;2024-03-02T03:59:13;99801.19;;;16.12;56.31
77263;BME280;66373;52.334;4.806;2024-03-02T04:01:40;99806.38;;;16.12;56.31
77263;BME280;66373;52.334;4.806;2024-03-02T04:04:07;99799.59;;;16.08;56.39
77263;BME280;66373;52.334;4.806;2024-03-02T04:06:36;99809.03;;;16.10;56.36
77263;BME280;66373;52.334;4.806;2024-03-02T04:09:03;99808.19;;;16.10;56.18
77263;BME280;66373;52.334;4.806;2024-03-02T04:11:30;99804.69;;;16.11;56.15
77263;BME280;66373;52.334;4.806;2024-03-02T04:13:57;99808.19;;;16.10;56.18
77263;BME280;66373;52.334;4.806;2024-03-02T04:16:25;99811.69;;;16.09;56.21
77263;BME280;66373;52.334;4.806;2024-03-02T04:18:52;99809.16;;;16.06;56.13
77263;BME280;66373;52.334;4.806;2024-03-02T04:21:20;99818.56;;;16.10;56.14
77263;BME280;66373;52.334;4.806;2024-03-02T04:23:48;99819.47;;;16.09;56.28
77263;BME280;66373;52.334;4.806;2024-03-02T04:26:16;99818.63;;;16.08;56.18
77263;BME280;66373;52.334;4.806;2024-03-02T04:28:47;99813.56;;;16.04;56.12
77263;BME280;66373;52.334;4.806;2024-03-02T04:31:15;99820.34;;;16.08;56.28
77263;BME280;66373;52.334;4.806;2024-03-02T04:33:42;99815.25;;;16.05;56.27
77263;BME280;66373;52.334;4.806;2024-03-02T04:36:09;99823.94;;;16.04;56.04
77263;BME280;66373;52.334;4.806;2024-03-02T04:38:37;99829.94;;;16.06;56.27
77263;BME280;66373;52.334;4.806;2024-03-02T04:41:06;99821.28;;;16.05;56.22
77263;BME280;66373;52.334;4.806;2024-03-02T04:43:33;99818.75;;;16.04;56.20
77263;BME280;66373;52.334;4.806;2024-03-02T04:46:01;99830.81;;;16.05;56.08
77263;BME280;66373;52.334;4.806;2024-03-02T04:48:28;99828.22;;;16.05;56.32
77263;BME280;66373;52.334;4.806;2024-03-02T04:50:55;99831.66;;;16.05;56.18
77263;BME280;66373;52.334;4.806;2024-03-02T04:53:22;99824.00;;;16.01;56.25
77263;BME280;66373;52.334;4.806;2024-03-02T04:55:49;99825.75;;;16.00;56.32
77263;BME280;66373;52.334;4.806;2024-03-02T04:58:35;99834.31;;;16.04;56.13
77263;BME280;66373;52.334;4.806;2024-03-02T05:01:02;99834.31;;;16.04;56.16
77263;BME280;66373;52.334;4.806;2024-03-02T05:03:29;99837.78;;;16.03;56.32
77263;BME280;66373;52.334;4.806;2024-03-02T05:05:57;99846.47;;;16.02;56.12
77263;BME280;66373;52.334;4.806;2024-03-02T05:08:24;99848.25;;;16.00;56.21
77263;BME280;66373;52.334;4.806;2024-03-02T05:10:51;99841.28;;;16.02;56.27
77263;BME280;66373;52.334;4.806;2024-03-02T05:13:18;99846.47;;;16.02;56.14
77263;BME280;66373;52.334;4.806;2024-03-02T05:15:48;99856.00;;;16.01;56.22
77263;BME280;66373;52.334;4.806;2024-03-02T05:18:15;99856.88;;;16.00;56.24
77263;BME280;66373;52.334;4.806;2024-03-02T05:20:42;99859.47;;;16.00;56.21
77263;BME280;66373;52.334;4.806;2024-03-02T05:23:09;99857.78;;;15.99;56.15
77263;BME280;66373;52.334;4.806;2024-03-02T05:25:36;99858.63;;;16.00;56.09
77263;BME280;66373;52.334;4.806;2024-03-02T05:28:04;99856.91;;;15.99;56.16
77263;BME280;66373;52.334;4.806;2024-03-02T05:30:32;99863.03;;;15.96;56.29
77263;BME280;66373;52.334;4.806;2024-03-02T05:33:00;99865.59;;;15.98;56.02
77263;BME280;66373;52.334;4.806;2024-03-02T05:35:27;99862.19;;;15.95;56.18
77263;BME280;66373;52.334;4.806;2024-03-02T05:37:54;99870.78;;;15.98;55.97
77263;BME280;66373;52.334;4.806;2024-03-02T05:40:22;99869.16;;;15.93;56.17
77263;BME280;66373;52.334;4.806;2024-03-02T05:42:49;99872.56;;;15.95;56.22
77263;BME280;66373;52.334;4.806;2024-03-02T05:45:16;99878.66;;;15.94;56.07
77263;BME280;66373;52.334;4.806;2024-03-02T05:47:43;99862.28;;;15.92;56.22
77263;BME280;66373;52.334;4.806;2024-03-02T05:50:12;99881.25;;;15.94;56.21
77263;BME280;66373;52.334;4.806;2024-03-02T05:52:39;99876.06;;;15.94;56.12
77263;BME280;66373;52.334;4.806;2024-03-02T05:55:07;99879.53;;;15.93;56.17
77263;BME280;66373;52.334;4.806;2024-03-02T05:57:35;99884.72;;;15.93;55.98
77263;BME280;66373;52.334;4.806;2024-03-02T06:00:16;99886.50;;;15.91;56.04
77263;BME280;66373;52.334;4.806;2024-03-02T06:02:43;99881.31;;;15.91;56.12
77263;BME280;66373;52.334;4.806;2024-03-02T06:05:12;99874.50;;;15.87;56.18
77263;BME280;66373;52.334;4.806;2024-03-02T06:07:41;99881.31;;;15.91;56.06
77263;BME280;66373;52.334;4.806;2024-03-02T06:10:08;99881.41;;;15.88;56.06
77263;BME280;66373;52.334;4.806;2024-03-02T06:12:36;99882.22;;;15.90;56.02
77263;BME280;66373;52.334;4.806;2024-03-02T06:15:04;99890.00;;;15.90;56.00
77263;BME280;66373;52.334;4.806;2024-03-02T06:17:32;99880.53;;;15.88;55.97
77263;BME280;66373;52.334;4.806;2024-03-02T06:19:59;99894.31;;;15.90;56.11
77263;BME280;66373;52.334;4.806;2024-03-02T06:22:28;99895.22;;;15.89;55.99
77263;BME280;66373;52.334;4.806;2024-03-02T06:24:55;99893.50;;;15.88;56.03
77263;BME280;66373;52.334;4.806;2024-03-02T06:27:22;99889.22;;;15.87;56.23
77263;BME280;66373;52.334;4.806;2024-03-02T06:29:48;99894.38;;;15.88;55.96
77263;BME280;66373;52.334;4.806;2024-03-02T06:32:17;99897.84;;;15.87;56.08
77263;BME280;66373;52.334;4.806;2024-03-02T06:34:44;99893.56;;;15.86;56.05
77263;BME280;66373;52.334;4.806;2024-03-02T06:37:11;99903.94;;;15.86;56.02
77263;BME280;66373;52.334;4.806;2024-03-02T06:39:40;99907.38;;;15.87;56.25
77263;BME280;66373;52.334;4.806;2024-03-02T06:42:07;99906.59;;;15.85;56.09
77263;BME280;66373;52.334;4.806;2024-03-02T06:44:35;99904.81;;;15.85;56.14
77263;BME280;66373;52.334;4.806;2024-03-02T06:47:02;99907.41;;;15.85;56.06
77263;BME280;66373;52.334;4.806;2024-03-02T06:49:29;99904.88;;;15.84;56.08
77263;BME280;66373;52.334;4.806;2024-03-02T06:51:57;99912.59;;;15.85;56.00
77263;BME280;66373;52.334;4.806;2024-03-02T06:54:24;99909.19;;;15.85;56.19
77263;BME280;66373;52.334;4.806;2024-03-02T06:56:52;99905.75;;;15.84;56.06
77263;BME280;66373;52.334;4.806;2024-03-02T06:59:19;99911.78;;;15.85;56.21
77263;BME280;66373;52.334;4.806;2024-03-02T07:01:46;99904.88;;;15.84;56.04
77263;BME280;66373;52.334;4.806;2024-03-02T07:04:14;99916.13;;;15.84;56.04
77263;BME280;66373;52.334;4.806;2024-03-02T07:06:41;99909.19;;;15.85;56.18
77263;BME280;66373;52.334;4.806;2024-03-02T07:09:08;99919.59;;;15.83;56.18
77263;BME280;66373;52.334;4.806;2024-03-02T07:11:36;99920.53;;;15.81;56.35
77263;BME280;66373;52.334;4.806;2024-03-02T07:14:05;99914.50;;;15.80;56.11
77263;BME280;66373;52.334;4.806;2024-03-02T07:16:32;99925.63;;;15.84;56.09
77263;BME280;66373;52.334;4.806;2024-03-02T07:19:00;99923.94;;;15.83;55.97
77263;BME280;66373;52.334;4.806;2024-03-02T07:21:27;99929.13;;;15.83;56.12
77263;BME280;66373;52.334;4.806;2024-03-02T07:23:55;99930.88;;;15.82;56.13
77263;BME280;66373;52.334;4.806;2024-03-02T07:26:22;99929.13;;;15.83;56.00
77263;BME280;66373;52.334;4.806;2024-03-02T07:28:50;99924.88;;;15.80;56.25
77263;BME280;66373;52.334;4.806;2024-03-02T07:31:19;99938.63;;;15.82;55.97
77263;BME280;66373;52.334;4.806;2024-03-02T07:33:46;99936.03;;;15.82;56.18
77263;BME280;66373;52.334;4.806;2024-03-02T07:36:14;99931.75;;;15.81;55.94
77263;BME280;66373;52.334;4.806;2024-03-02T07:38:42;99936.13;;;15.79;55.87
77263;BME280;66373;52.334;4.806;2024-03-02T07:41:10;99936.09;;;15.81;56.00
77263;BME280;66373;52.334;4.806;2024-03-02T07:43:37;99953.38;;;15.80;56.01
77263;BME280;66373;52.334;4.806;2024-03-02T07:46:05;99961.16;;;15.80;55.97
77263;BME280;66373;52.334;4.806;2024-03-02T07:48:34;99955.97;;;15.80;56.00
77263;BME280;66373;52.334;4.806;2024-03-02T07:51:01;99961.16;;;15.80;55.92
77263;BME280;66373;52.334;4.806;2024-03-02T07:53:28;99966.31;;;15.82;56.30
77263;BME280;66373;52.334;4.806;2024-03-02T07:55:56;99964.56;;;15.82;56.09
77263;BME280;66373;52.334;4.806;2024-03-02T07:58:28;99966.28;;;15.83;56.01
77263;BME280;66373;52.334;4.806;2024-03-02T08:00:56;99974.94;;;15.82;56.00
77263;BME280;66373;52.334;4.806;2024-03-02T08:03:24;99972.34;;;15.82;56.12
77263;BME280;66373;52.334;4.806;2024-03-02T08:05:52;99965.47;;;15.81;56.09
77263;BME280;66373;52.334;4.806;2024-03-02T08:08:20;99973.25;;;15.81;55.95
77263;BME280;66373;52.334;4.806;2024-03-02T08:10:47;99962.88;;;15.81;56.09
77263;BME280;66373;52.334;4.806;2024-03-02T08:13:14;99975.78;;;15.83;56.21
77263;BME280;66373;52.334;4.806;2024-03-02T08:15:42;99966.31;;;15.82;56.24
77263;BME280;66373;52.334;4.806;2024-03-02T08:18:09;99976.66;;;15.83;56.04
77263;BME280;66373;52.334;4.806;2024-03-02T08:20:36;99969.75;;;15.82;56.17
77263;BME280;66373;52.334;4.806;2024-03-02T08:23:05;99968.91;;;15.82;56.20
77263;BME280;66373;52.334;4.806;2024-03-02T08:25:32;99980.13;;;15.82;56.29
77263;BME280;66373;52.334;4.806;2024-03-02T08:27:59;99964.56;;;15.82;56.23
77263;BME280;66373;52.334;4.806;2024-03-02T08:30:26;99963.72;;;15.82;56.28
77263;BME280;66373;52.334;4.806;2024-03-02T08:32:53;99957.69;;;15.81;56.44
77263;BME280;66373;52.334;4.806;2024-03-02T08:35:20;99959.38;;;15.82;56.39
77263;BME280;66373;52.334;4.806;2024-03-02T08:37:48;99962.03;;;15.81;56.38
77263;BME280;66373;52.334;4.806;2024-03-02T08:40:17;99968.06;;;15.81;56.57
77263;BME280;66373;52.334;4.806;2024-03-02T08:42:44;99960.31;;;15.80;56.46
77263;BME280;66373;52.334;4.806;2024-03-02T08:45:12;99962.03;;;15.81;56.50
77263;BME280;66373;52.334;4.806;2024-03-02T08:47:40;99955.97;;;15.80;56.43
77263;BME280;66373;52.334;4.806;2024-03-02T08:50:08;99961.13;;;15.82;56.59
77263;BME280;66373;52.334;4.806;2024-03-02T08:52:35;99952.50;;;15.81;56.52
77263;BME280;66373;52.334;4.806;2024-03-02T08:55:02;99955.06;;;15.83;56.67
77263;BME280;66373;52.334;4.806;2024-03-02T08:57:31;99965.44;;;15.83;56.71
77263;BME280;66373;52.334;4.806;2024-03-02T08:59:59;99969.72;;;15.84;56.71
77263;BME280;66373;52.334;4.806;2024-03-02T09:02:26;99972.31;;;15.84;56.88
77263;BME280;66373;52.334;4.806;2024-03-02T09:04:54;99980.94;;;15.84;56.60
77263;BME280;66373;52.334;4.806;2024-03-02T09:07:21;99980.03;;;15.85;56.61
77263;BME280;66373;52.334;4.806;2024-03-02T09:09:48;99980.88;;;15.86;56.75
77263;BME280;66373;52.334;4.806;2024-03-02T09:12:15;99977.44;;;15.85;56.84
77263;BME280;66373;52.334;4.806;2024-03-02T09:14:44;99974.84;;;15.85;56.82
77263;BME280;66373;52.334;4.806;2024-03-02T09:17:12;99973.19;;;15.83;56.85
77263;BME280;66373;52.334;4.806;2024-03-02T09:19:39;99986.91;;;15.86;56.69
77263;BME280;66373;52.334;4.806;2024-03-02T09:22:07;99978.25;;;15.87;56.93
77263;BME280;66373;52.334;4.806;2024-03-02T09:24:35;99984.28;;;15.88;56.79
77263;BME280;66373;52.334;4.806;2024-03-02T09:27:02;99978.25;;;15.87;56.94
77263;BME280;66373;52.334;4.806;2024-03-02T09:29:30;99986.84;;;15.89;56.93
77263;BME280;66373;52.334;4.806;2024-03-02T09:31:59;99986.00;;;15.89;56.71
77263;BME280;66373;52.334;4.806;2024-03-02T09:34:26;99982.50;;;15.90;56.76
77263;BME280;66373;52.334;4.806;2024-03-02T09:36:53;99988.53;;;15.90;56.71
77263;BME280;66373;52.334;4.806;2024-03-02T09:39:21;99979.88;;;15.91;56.72
77263;BME280;66373;52.334;4.806;2024-03-02T09:41:48;99978.97;;;15.92;56.78
77263;BME280;66373;52.334;4.806;2024-03-02T09:44:15;99986.75;;;15.92;56.81
77263;BME280;66373;52.334;4.806;2024-03-02T09:46:43;99992.81;;;15.93;57.11
77263;BME280;66373;52.334;4.806;2024-03-02T09:49:12;99984.97;;;15.94;57.04
77263;BME280;66373;52.334;4.806;2024-03-02T09:51:40;99979.84;;;15.93;57.37
77263;BME280;66373;52.334;4.806;2024-03-02T09:54:08;99982.38;;;15.94;57.36
77263;BME280;66373;52.334;4.806;2024-03-02T09:56:35;99965.94;;;15.95;57.37
77263;BME280;66373;52.334;4.806;2024-03-02T09:59:02;99974.53;;;15.98;57.20
77263;BME280;66373;52.334;4.806;2024-03-02T10:01:30;99973.69;;;15.97;57.29
77263;BME280;66373;52.334;4.806;2024-03-02T10:03:59;99987.47;;;15.99;57.36
77263;BME280;66373;52.334;4.806;2024-03-02T10:06:28;99983.94;;;16.02;57.27
77263;BME280;66373;52.334;4.806;2024-03-02T10:08:56;99988.31;;;16.00;57.19
77263;BME280;66373;52.334;4.806;2024-03-02T10:11:26;99988.31;;;16.00;57.67
77263;BME280;66373;52.334;4.806;2024-03-02T10:14:09;99988.25;;;16.03;57.51
77263;BME280;66373;52.334;4.806;2024-03-02T10:16:38;99993.44;;;16.03;57.37
77263;BME280;66373;52.334;4.806;2024-03-02T10:19:18;99978.72;;;16.03;57.48
77263;BME280;66373;52.334;4.806;2024-03-02T10:21:48;99989.06;;;16.05;57.39
77263;BME280;66373;52.334;4.806;2024-03-02T10:24:16;99998.53;;;16.06;57.46
77263;BME280;66373;52.334;4.806;2024-03-02T10:26:44;99987.22;;;16.08;57.11
77263;BME280;66373;52.334;4.806;2024-03-02T10:29:11;99990.69;;;16.09;57.41
77263;BME280;66373;52.334;4.806;2024-03-02T10:31:39;99988.94;;;16.09;57.17
77263;BME280;66373;52.334;4.806;2024-03-02T10:34:07;99989.78;;;16.10;57.21
77263;BME280;66373;52.334;4.806;2024-03-02T10:36:34;99993.16;;;16.12;57.28
77263;BME280;66373;52.334;4.806;2024-03-02T10:39:04;99987.09;;;16.13;57.28
77263;BME280;66373;52.334;4.806;2024-03-02T10:41:33;99987.97;;;16.12;57.19
77263;BME280;66373;52.334;4.806;2024-03-02T10:44:02;99980.16;;;16.13;57.23
77263;BME280;66373;52.334;4.806;2024-03-02T10:46:30;99968.84;;;16.16;57.21
77263;BME280;66373;52.334;4.806;2024-03-02T10:48:59;99979.22;;;16.16;57.12
77263;BME280;66373;52.334;4.806;2024-03-02T10:51:27;99971.41;;;16.17;57.43
77263;BME280;66373;52.334;4.806;2024-03-02T10:53:57;99968.75;;;16.19;57.13
77263;BME280;66373;52.334;4.806;2024-03-02T10:56:29;99971.31;;;16.20;57.10
77263;BME280;66373;52.334;4.806;2024-03-02T10:59:03;99965.34;;;16.17;57.00
77263;BME280;66373;52.334;4.806;2024-03-02T11:01:32;99970.47;;;16.20;57.07
77263;BME280;66373;52.334;4.806;2024-03-02T11:04:02;99963.56;;;16.19;57.07
77263;BME280;66373;52.334;4.806;2024-03-02T11:06:32;99965.28;;;16.20;57.13
77263;BME280;66373;52.334;4.806;2024-03-02T11:09:06;99965.19;;;16.23;57.04
77263;BME280;66373;52.334;4.806;2024-03-02T11:11:37;99959.13;;;16.24;57.10
77263;BME280;66373;52.334;4.806;2024-03-02T11:14:13;99966.00;;;16.25;56.98
77263;BME280;66373;52.334;4.806;2024-03-02T11:16:40;99958.22;;;16.25;56.95
77263;BME280;66373;52.334;4.806;2024-03-02T11:19:10;99965.06;;;16.27;56.91
77263;BME280;66373;52.334;4.806;2024-03-02T11:21:38;99967.63;;;16.29;57.05
77263;BME280;66373;52.334;4.806;2024-03-02T11:24:30;99966.69;;;16.32;56.91
77263;BME280;66373;52.334;4.806;2024-03-02T11:27:03;99965.88;;;16.29;56.88
77263;BME280;66373;52.334;4.806;2024-03-02T11:29:48;99957.97;;;16.34;56.92
77263;BME280;66373;52.334;4.806;2024-03-02T11:32:16;99960.53;;;16.36;57.07
77263;BME280;66373;52.334;4.806;2024-03-02T11:34:46;99962.25;;;16.37;57.18
77263;BME280;66373;52.334;4.806;2024-03-02T11:37:15;99966.47;;;16.39;56.98
77263;BME280;66373;52.334;4.806;2024-03-02T11:39:44;99964.75;;;16.38;56.81
77263;BME280;66373;52.334;4.806;2024-03-02T11:42:14;99956.88;;;16.41;56.72
77263;BME280;66373;52.334;4.806;2024-03-02T11:44:43;99956.88;;;16.41;56.80
77263;BME280;66373;52.334;4.806;2024-03-02T11:47:13;99954.22;;;16.44;56.81
77263;BME280;66373;52.334;4.806;2024-03-02T11:49:42;99954.13;;;16.47;56.83
77263;BME280;66373;52.334;4.806;2024-03-02T11:52:12;99962.72;;;16.49;56.91
77263;BME280;66373;52.334;4.806;2024-03-02T11:54:41;99955.81;;;16.48;56.82
77263;BME280;66373;52.334;4.806;2024-03-02T11:57:15;99947.06;;;16.52;56.91
77263;BME280;66373;52.334;4.806;2024-03-02T11:59:42;99959.16;;;16.53;56.68
77263;BME280;66373;52.334;4.806;2024-03-02T12:02:15;99948.69;;;16.56;56.63
77263;BME280;66373;52.334;4.806;2024-03-02T12:04:44;99943.41;;;16.59;56.68
77263;BME280;66373;52.334;4.806;2024-03-02T12:07:12;99944.34;;;16.57;56.57
77263;BME280;66373;52.334;4.806;2024-03-02T12:09:39;99935.56;;;16.61;56.53
77263;BME280;66373;52.334;4.806;2024-03-02T12:12:08;99946.72;;;16.65;56.53
77263;BME280;66373;52.334;4.806;2024-03-02T12:14:37;99931.94;;;16.67;56.54
77263;BME280;66373;52.334;4.806;2024-03-02T12:17:05;99928.47;;;16.68;56.54
77263;BME280;66373;52.334;4.806;2024-03-02T12:19:33;99935.31;;;16.70;56.45
77263;BME280;66373;52.334;4.806;2024-03-02T12:22:00;99919.78;;;16.69;56.28
77263;BME280;66373;52.334;4.806;2024-03-02T12:24:29;99925.69;;;16.74;56.39
77263;BME280;66373;52.334;4.806;2024-03-02T12:26:57;99918.69;;;16.76;56.37
77263;BME280;66373;52.334;4.806;2024-03-02T12:29:24;99920.41;;;16.77;56.39
77263;BME280;66373;52.334;4.806;2024-03-02T12:31:53;99911.72;;;16.78;56.49
77263;BME280;66373;52.334;4.806;2024-03-02T12:34:21;99910.78;;;16.80;56.22
77263;BME280;66373;52.334;4.806;2024-03-02T12:36:49;99912.44;;;16.83;56.12
77263;BME280;66373;52.334;4.806;2024-03-02T12:39:19;99908.91;;;16.85;56.26
77263;BME280;66373;52.334;4.806;2024-03-02T12:41:49;99900.22;;;16.86;56.14
77263;BME280;66373;52.334;4.806;2024-03-02T12:44:17;99890.66;;;16.87;56.12
77263;BME280;66373;52.334;4.806;2024-03-02T12:46:44;99900.03;;;16.91;56.15
77263;BME280;66373;52.334;4.806;2024-03-02T12:49:15;99893.94;;;16.92;56.08
77263;BME280;66373;52.334;4.806;2024-03-02T12:51:43;99897.34;;;16.94;56.11
77263;BME280;66373;52.334;4.806;2024-03-02T12:54:12;99892.06;;;16.97;56.17
77263;BME280;66373;52.334;4.806;2024-03-02T12:56:41;99899.84;;;16.97;56.06
77263;BME280;66373;52.334;4.806;2024-03-02T12:59:18;99890.16;;;17.02;56.07
77263;BME280;66373;52.334;4.806;2024-03-02T13:01:51;99896.16;;;17.04;56.01
77263;BME280;66373;52.334;4.806;2024-03-02T13:04:24;99888.28;;;17.07;56.02
77263;BME280;66373;52.334;4.806;2024-03-02T13:06:51;99896.03;;;17.09;55.83
77263;BME280;66373;52.334;4.806;2024-03-02T13:09:19;99889.88;;;17.11;56.02